LPPS/PXO METAR and TAF weather

Enter ICAO airport designator
Station Type Date Time Source
LPPS METAR 2018/12/15 20:00 UTC NOAA

LPPS 152000Z 31004KT CAVOK 16/13 Q1028


Station Type Date Time Source
LPPS Decoded METAR 2018/12/15 20:00 UTC NOAA

Porto Santo, Portugal (LPPS) 33-04N 016-21W 82M
Dec 15, 2018 - 03:00 PM EST / 2018.12.15 2000 UTC
Wind: from the NW (310 degrees) at 5 MPH (4 KT):0
Visibility: greater than 7 mile(s):0
Temperature: 60 F (16 C)
Dew Point: 55 F (13 C)
Relative Humidity: 82%
Pressure (altimeter): 30.36 in. Hg (1028 hPa)
ob: LPPS 152000Z 31004KT CAVOK 16/13 Q1028
cycle: 20

Station Type Date Time Source
LPPS TAF 2018/12/15 18:18 UTC NOAA

TAF LPPS 151700Z 1518/1624 VRB05KT 9999 FEW015
BECMG 1518/1521 SCT015 BKN030
BECMG 1611/1614 01008KT PROB30
TEMPO 1612/1621 5000 -RADZ SCT006 BKN012
BECMG 1618/1620 06005KT


Example: see airport list